createdAt,value
2023-05-14T00:01:15.459Z,68.86
2023-05-14T00:03:42.363Z,69.16
2023-05-14T00:06:10.697Z,69.53
2023-05-14T00:08:37.501Z,69.52
2023-05-14T00:11:04.558Z,69.54
2023-05-14T00:13:31.222Z,69.46
2023-05-14T00:15:57.846Z,69.43
2023-05-14T00:18:24.666Z,69.49
2023-05-14T00:20:54.783Z,69.42
2023-05-14T00:23:22.373Z,69.52
2023-05-14T00:25:49.409Z,69.55
2023-05-14T00:28:16.814Z,69.67
2023-05-14T00:30:44.698Z,69.70
2023-05-14T00:33:11.559Z,69.58
2023-05-14T00:35:38.279Z,69.40
2023-05-14T00:38:04.901Z,69.62
2023-05-14T00:40:31.899Z,69.60
2023-05-14T00:42:58.501Z,69.59
2023-05-14T00:45:26.010Z,69.56
2023-05-14T00:47:54.084Z,69.63
2023-05-14T00:50:21.594Z,69.66
2023-05-14T00:52:49.274Z,69.81
2023-05-14T00:55:16.711Z,69.90
2023-05-14T00:57:43.892Z,69.99
2023-05-14T01:00:11.134Z,69.88
2023-05-14T01:02:38.106Z,69.81
2023-05-14T01:05:05.239Z,69.73
2023-05-14T01:08:05.424Z,69.86
2023-05-14T01:10:42.380Z,69.83
2023-05-14T01:13:54.319Z,69.95
2023-05-14T01:16:23.340Z,69.96
2023-05-14T01:18:52.009Z,69.98
2023-05-14T01:21:38.798Z,69.93
2023-05-14T01:24:09.166Z,69.99
2023-05-14T01:26:36.638Z,69.77
2023-05-14T01:29:22.572Z,70.11
2023-05-14T01:31:51.462Z,69.84
2023-05-14T01:34:22.728Z,70.10
2023-05-14T01:36:51.396Z,70.00
2023-05-14T01:39:19.284Z,69.90
2023-05-14T01:41:46.763Z,70.28
2023-05-14T01:44:14.124Z,70.25
2023-05-14T01:46:40.911Z,70.22
2023-05-14T01:49:10.889Z,70.17
2023-05-14T01:51:37.913Z,70.43
2023-05-14T01:54:04.615Z,70.13
2023-05-14T01:56:31.234Z,70.45
2023-05-14T01:58:58.096Z,70.43
2023-05-14T02:01:26.131Z,70.58
2023-05-14T02:03:53.016Z,70.56
2023-05-14T02:06:19.697Z,70.58
2023-05-14T02:08:46.300Z,70.54
2023-05-14T02:11:12.868Z,70.42
2023-05-14T02:13:39.875Z,70.59
2023-05-14T02:16:06.887Z,70.64
2023-05-14T02:18:33.585Z,70.44
2023-05-14T02:21:00.681Z,70.68
2023-05-14T02:23:37.779Z,70.74
2023-05-14T02:26:09.587Z,70.69
2023-05-14T02:28:36.389Z,70.47
2023-05-14T02:31:03.078Z,70.56
2023-05-14T02:33:30.102Z,70.50
2023-05-14T02:35:56.727Z,70.77
2023-05-14T02:38:23.460Z,70.63
2023-05-14T02:40:50.228Z,70.72
2023-05-14T02:43:16.825Z,70.52
2023-05-14T02:45:43.604Z,70.74
2023-05-14T02:48:10.639Z,71.00
2023-05-14T02:50:37.262Z,70.59
2023-05-14T02:53:04.154Z,70.68
2023-05-14T02:55:31.145Z,70.80
2023-05-14T02:57:57.788Z,70.90
2023-05-14T03:00:24.606Z,70.90
2023-05-14T03:02:51.886Z,71.00
2023-05-14T03:05:19.092Z,70.97
2023-05-14T03:07:45.806Z,71.14
2023-05-14T03:10:12.583Z,71.04
2023-05-14T03:12:39.194Z,71.27
2023-05-14T03:15:06.259Z,71.53
2023-05-14T03:17:33.219Z,71.15
2023-05-14T03:19:59.913Z,71.32
2023-05-14T03:22:26.774Z,71.60
2023-05-14T03:24:53.759Z,71.56
2023-05-14T03:27:20.858Z,71.40
2023-05-14T03:29:47.415Z,71.67
2023-05-14T03:32:14.657Z,71.55
2023-05-14T03:34:41.600Z,71.88
2023-05-14T03:37:08.208Z,71.65
2023-05-14T03:39:35.134Z,71.88
2023-05-14T03:42:01.967Z,71.83
2023-05-14T03:44:28.653Z,72.00
2023-05-14T03:46:55.914Z,72.06
2023-05-14T03:49:22.533Z,71.92
2023-05-14T03:51:49.240Z,72.07
2023-05-14T03:54:15.995Z,71.96
2023-05-14T03:56:42.666Z,72.16
2023-05-14T03:59:09.262Z,72.25
2023-05-14T04:01:36.169Z,72.26
2023-05-14T04:04:03.080Z,72.31
2023-05-14T04:06:29.794Z,72.46
2023-05-14T04:08:56.591Z,72.55
2023-05-14T04:11:23.281Z,72.27
2023-05-14T04:13:49.941Z,72.46
2023-05-14T04:16:16.746Z,72.79
2023-05-14T04:18:43.560Z,72.49
2023-05-14T04:21:10.243Z,72.72
2023-05-14T04:23:36.894Z,72.60
2023-05-14T04:26:03.836Z,72.82
2023-05-14T04:28:30.541Z,72.71
2023-05-14T04:30:57.214Z,72.74
2023-05-14T04:33:23.821Z,73.02
2023-05-14T04:35:50.417Z,72.80
2023-05-14T04:38:17.148Z,72.86
2023-05-14T04:40:43.828Z,72.85
2023-05-14T04:43:10.802Z,73.17
2023-05-14T04:45:37.700Z,73.38
2023-05-14T04:48:05.939Z,73.67
2023-05-14T04:50:32.731Z,73.63
2023-05-14T04:52:59.334Z,73.74
2023-05-14T04:55:26.008Z,74.08
2023-05-14T04:57:52.967Z,73.93
2023-05-14T05:00:22.144Z,74.08
2023-05-14T05:02:49.184Z,74.41
2023-05-14T05:05:15.886Z,74.39
2023-05-14T05:07:42.878Z,74.07
2023-05-14T05:10:09.731Z,74.05
2023-05-14T05:12:36.337Z,74.16
2023-05-14T05:15:02.956Z,74.22
2023-05-14T05:17:30.031Z,74.04
2023-05-14T05:19:57.000Z,74.15
2023-05-14T05:22:24.272Z,74.17
2023-05-14T05:24:50.903Z,74.13
2023-05-14T05:27:22.179Z,73.61
2023-05-14T05:29:49.232Z,73.28
2023-05-14T05:32:16.103Z,73.11
2023-05-14T05:34:42.791Z,72.73
2023-05-14T05:37:12.771Z,72.57
2023-05-14T05:39:39.859Z,72.48
2023-05-14T05:42:06.952Z,72.41
2023-05-14T05:44:33.663Z,72.57
2023-05-14T05:47:00.321Z,72.50
2023-05-14T05:49:26.948Z,72.67
2023-05-14T05:51:53.608Z,72.63
2023-05-14T05:54:20.254Z,72.70
2023-05-14T05:56:46.832Z,72.39
2023-05-14T05:59:13.424Z,72.43
2023-05-14T06:01:41.363Z,72.22
2023-05-14T06:04:11.786Z,71.55
2023-05-14T06:06:38.382Z,71.31
2023-05-14T06:09:06.882Z,71.09
2023-05-14T06:11:33.700Z,70.27
2023-05-14T06:14:00.647Z,69.84
2023-05-14T06:16:27.607Z,68.93
2023-05-14T06:18:55.513Z,68.50
2023-05-14T06:21:22.580Z,67.69
2023-05-14T06:23:49.206Z,67.11
2023-05-14T06:26:15.944Z,66.89
2023-05-14T06:28:42.862Z,66.68
2023-05-14T06:31:09.664Z,66.09
2023-05-14T06:33:36.390Z,65.42
2023-05-14T06:36:07.422Z,65.11
2023-05-14T06:38:34.164Z,63.97
2023-05-14T06:41:00.818Z,62.76
2023-05-14T06:43:28.141Z,61.38
2023-05-14T06:45:54.813Z,60.21
2023-05-14T06:48:21.581Z,59.17
2023-05-14T06:50:49.434Z,57.90
2023-05-14T06:53:16.270Z,57.03
2023-05-14T06:55:43.028Z,56.03
2023-05-14T06:58:09.874Z,55.51
2023-05-14T07:00:36.509Z,54.35
2023-05-14T07:03:03.211Z,54.04
2023-05-14T07:05:30.218Z,53.71
2023-05-14T07:07:56.862Z,52.81
2023-05-14T07:10:24.116Z,52.17
2023-05-14T07:12:51.099Z,50.83
2023-05-14T07:15:17.849Z,50.04
2023-05-14T07:17:44.718Z,49.47
2023-05-14T07:20:11.987Z,49.00
2023-05-14T07:22:38.685Z,48.44
2023-05-14T07:25:06.481Z,47.67
2023-05-14T07:27:33.133Z,47.64
2023-05-14T07:29:59.711Z,47.00
2023-05-14T07:32:26.410Z,46.08
2023-05-14T07:34:53.170Z,45.30
2023-05-14T07:37:20.314Z,44.83
2023-05-14T07:39:47.680Z,43.92
2023-05-14T07:42:22.064Z,43.51
2023-05-14T07:44:58.721Z,43.65
2023-05-14T07:47:25.394Z,43.50
2023-05-14T07:49:56.368Z,43.29
2023-05-14T07:52:23.733Z,43.59
2023-05-14T07:54:53.151Z,42.99
2023-05-14T07:57:20.410Z,42.44
2023-05-14T07:59:48.459Z,42.18
2023-05-14T08:02:16.962Z,41.96
2023-05-14T08:04:43.988Z,41.73
2023-05-14T08:07:11.662Z,41.79
2023-05-14T08:09:38.338Z,40.98
2023-05-14T08:12:05.598Z,40.96
2023-05-14T08:14:32.622Z,40.72
2023-05-14T08:16:59.485Z,40.19
2023-05-14T08:19:27.423Z,40.13
2023-05-14T08:21:54.178Z,39.64
2023-05-14T08:24:21.038Z,39.31
2023-05-14T08:26:47.794Z,39.27
2023-05-14T08:29:16.295Z,39.13
2023-05-14T08:31:43.540Z,38.52
2023-05-14T08:34:10.122Z,38.04
2023-05-14T08:36:36.792Z,38.23
2023-05-14T08:39:03.639Z,37.56
2023-05-14T08:41:30.355Z,37.52
2023-05-14T08:44:25.980Z,36.76
2023-05-14T08:46:53.898Z,36.67
2023-05-14T08:49:32.439Z,36.01
2023-05-14T08:52:00.164Z,36.11
2023-05-14T08:54:28.608Z,35.48
2023-05-14T08:56:55.681Z,35.45
2023-05-14T08:59:22.294Z,35.56
2023-05-14T09:01:52.862Z,35.24
2023-05-14T09:04:24.677Z,35.25
2023-05-14T09:06:53.614Z,35.14
2023-05-14T09:09:23.488Z,35.62
2023-05-14T09:11:52.367Z,35.27
2023-05-14T09:14:20.065Z,34.73
2023-05-14T09:16:48.474Z,34.79
2023-05-14T09:19:19.113Z,34.74
2023-05-14T09:21:47.579Z,35.18
2023-05-14T09:24:22.108Z,35.11
2023-05-14T09:26:54.141Z,34.44
2023-05-14T09:29:20.874Z,34.28
2023-05-14T09:31:51.930Z,34.08
2023-05-14T09:34:26.226Z,34.01
2023-05-14T09:37:06.820Z,33.67
2023-05-14T09:39:36.344Z,33.42
2023-05-14T09:42:03.528Z,33.71
2023-05-14T09:44:30.685Z,33.83
2023-05-14T09:46:57.751Z,33.41
2023-05-14T09:49:24.489Z,33.14
2023-05-14T09:51:51.413Z,33.77
2023-05-14T09:54:18.459Z,33.67
2023-05-14T09:56:45.388Z,33.45
2023-05-14T09:59:12.199Z,33.18
2023-05-14T10:01:41.884Z,33.25
2023-05-14T10:04:11.167Z,32.98
2023-05-14T10:06:39.229Z,32.74
2023-05-14T10:09:12.172Z,32.75
2023-05-14T10:11:43.893Z,32.38
2023-05-14T10:14:49.830Z,32.28
2023-05-14T10:17:18.588Z,32.33
2023-05-14T10:19:54.078Z,31.99
2023-05-14T10:22:24.499Z,31.63
2023-05-14T10:24:52.788Z,32.35
2023-05-14T10:27:23.239Z,32.07
2023-05-14T10:29:55.479Z,31.62
2023-05-14T10:32:25.157Z,31.51
2023-05-14T10:34:53.504Z,31.72
2023-05-14T10:37:26.737Z,31.61
2023-05-14T10:39:57.772Z,32.06
2023-05-14T10:42:27.615Z,32.01
2023-05-14T10:44:58.489Z,32.34
2023-05-14T10:47:29.573Z,32.95
2023-05-14T10:49:59.016Z,33.01
2023-05-14T10:52:26.711Z,32.97
2023-05-14T10:54:56.091Z,32.59
2023-05-14T10:57:27.714Z,32.32
2023-05-14T10:59:56.510Z,32.36
2023-05-14T11:02:27.644Z,31.88
2023-05-14T11:05:09.294Z,31.78
2023-05-14T11:07:38.672Z,32.00
2023-05-14T11:10:11.614Z,32.19
2023-05-14T11:12:43.389Z,31.73
2023-05-14T11:15:12.216Z,31.45
2023-05-14T11:17:41.090Z,31.88
2023-05-14T11:20:08.894Z,31.77
2023-05-14T11:22:36.855Z,32.14
2023-05-14T11:25:04.691Z,32.35
2023-05-14T11:27:34.600Z,31.55
2023-05-14T11:30:01.859Z,31.31
2023-05-14T11:32:28.676Z,31.58
2023-05-14T11:34:56.070Z,31.17
2023-05-14T11:37:22.915Z,31.04
2023-05-14T11:39:52.314Z,31.05
2023-05-14T11:42:19.811Z,30.87
2023-05-14T11:44:52.013Z,31.57
2023-05-14T11:47:20.670Z,31.78
2023-05-14T11:49:48.085Z,31.95
2023-05-14T11:52:16.318Z,32.04
2023-05-14T11:54:44.490Z,32.05
2023-05-14T11:57:13.687Z,31.91
2023-05-14T11:59:41.111Z,32.10
2023-05-14T12:02:16.520Z,32.24
2023-05-14T12:04:44.545Z,32.45
2023-05-14T12:07:17.246Z,32.35
2023-05-14T12:09:49.875Z,32.33
2023-05-14T12:12:21.613Z,32.49
2023-05-14T12:14:50.231Z,32.79
2023-05-14T12:17:19.389Z,32.84
2023-05-14T12:19:48.558Z,32.96
2023-05-14T12:22:17.744Z,32.89
2023-05-14T12:24:53.655Z,33.20
2023-05-14T12:27:24.272Z,32.85
2023-05-14T12:30:16.773Z,33.22
2023-05-14T12:32:48.928Z,32.89
2023-05-14T12:35:16.150Z,33.14
2023-05-14T12:37:43.061Z,33.22
2023-05-14T12:40:10.310Z,33.45
2023-05-14T12:42:37.568Z,33.83
2023-05-14T12:45:07.275Z,33.75
2023-05-14T12:47:34.327Z,33.49
2023-05-14T12:50:01.461Z,33.83
2023-05-14T12:52:37.894Z,33.73
2023-05-14T12:55:09.283Z,33.85
2023-05-14T12:57:37.162Z,34.13
2023-05-14T13:00:07.150Z,34.21
2023-05-14T13:02:42.124Z,34.54
2023-05-14T13:05:10.741Z,34.79
2023-05-14T13:07:37.569Z,35.22
2023-05-14T13:10:05.700Z,35.11
2023-05-14T13:12:32.526Z,35.11
2023-05-14T13:14:59.395Z,35.17
2023-05-14T13:17:26.118Z,35.47
2023-05-14T13:19:52.780Z,36.23
2023-05-14T13:22:19.449Z,35.68
2023-05-14T13:24:46.420Z,36.18
2023-05-14T13:27:13.103Z,36.14
2023-05-14T13:29:40.078Z,35.93
2023-05-14T13:32:07.132Z,35.63
2023-05-14T13:34:34.073Z,35.85
2023-05-14T13:37:01.294Z,36.32
2023-05-14T13:39:27.980Z,36.94
2023-05-14T13:41:56.807Z,37.25
2023-05-14T13:44:24.050Z,37.39
2023-05-14T13:46:50.829Z,37.56
2023-05-14T13:49:17.640Z,37.71
2023-05-14T13:51:44.517Z,37.78
2023-05-14T13:54:11.177Z,38.21
2023-05-14T13:56:37.821Z,38.49
2023-05-14T13:59:04.928Z,38.73
2023-05-14T14:01:31.868Z,38.68
2023-05-14T14:03:58.952Z,38.50
2023-05-14T14:06:27.821Z,38.60
2023-05-14T14:08:54.462Z,38.62
2023-05-14T14:11:21.152Z,39.16
2023-05-14T14:13:48.039Z,39.37
2023-05-14T14:16:16.029Z,39.47
2023-05-14T14:18:43.398Z,39.89
2023-05-14T14:21:10.621Z,39.57
2023-05-14T14:23:37.253Z,39.80
2023-05-14T14:26:04.006Z,39.64
2023-05-14T14:28:31.360Z,39.51
2023-05-14T14:30:58.335Z,39.55
2023-05-14T14:33:25.087Z,39.52
2023-05-14T14:35:51.880Z,39.59
2023-05-14T14:38:18.524Z,39.38
2023-05-14T14:40:46.311Z,39.43
2023-05-14T14:43:13.076Z,39.26
2023-05-14T14:45:39.780Z,38.26
2023-05-14T14:48:26.423Z,37.69
2023-05-14T14:50:53.563Z,37.28
2023-05-14T14:53:21.964Z,37.03
2023-05-14T14:55:49.429Z,36.48
2023-05-14T14:58:16.607Z,36.00
2023-05-14T15:00:43.769Z,35.68
2023-05-14T15:03:10.660Z,35.38
2023-05-14T15:05:37.989Z,35.33
2023-05-14T15:08:05.064Z,35.21
2023-05-14T15:10:32.004Z,35.25
2023-05-14T15:12:59.761Z,35.11
2023-05-14T15:15:26.684Z,35.03
2023-05-14T15:17:53.487Z,34.89
2023-05-14T15:20:20.197Z,35.13
2023-05-14T15:22:47.012Z,35.23
2023-05-14T15:25:13.786Z,35.43
2023-05-14T15:27:40.491Z,35.35
2023-05-14T15:30:08.183Z,35.24
2023-05-14T15:32:34.971Z,35.41
2023-05-14T15:35:01.694Z,35.21
2023-05-14T15:37:28.343Z,35.17
2023-05-14T15:39:54.984Z,35.29
2023-05-14T15:42:21.619Z,35.20
2023-05-14T15:44:48.301Z,35.06
2023-05-14T15:47:14.933Z,35.17
2023-05-14T15:49:41.646Z,35.37
2023-05-14T15:52:08.364Z,35.16
2023-05-14T15:54:38.745Z,35.13
2023-05-14T15:57:05.454Z,35.02
2023-05-14T15:59:32.109Z,35.32
2023-05-14T16:01:58.762Z,35.19
2023-05-14T16:04:25.392Z,35.13
2023-05-14T16:06:52.014Z,35.23
2023-05-14T16:09:18.734Z,35.24
2023-05-14T16:11:45.356Z,35.19
2023-05-14T16:14:12.002Z,35.24
2023-05-14T16:16:38.715Z,35.17
2023-05-14T16:19:05.821Z,35.39
2023-05-14T16:21:34.263Z,35.49
2023-05-14T16:24:01.332Z,35.65
2023-05-14T16:26:27.949Z,35.60
2023-05-14T16:28:54.561Z,35.60
2023-05-14T16:31:21.260Z,35.61
2023-05-14T16:33:48.038Z,35.48
2023-05-14T16:36:14.790Z,35.68
2023-05-14T16:38:48.355Z,35.72
2023-05-14T16:41:28.605Z,36.00
2023-05-14T16:43:55.558Z,36.00
2023-05-14T16:46:22.195Z,35.93
2023-05-14T16:48:50.643Z,36.09
2023-05-14T16:51:17.423Z,36.00
2023-05-14T16:53:44.033Z,36.10
2023-05-14T16:56:11.094Z,35.98
2023-05-14T16:58:37.826Z,35.94
2023-05-14T17:01:05.290Z,36.10
2023-05-14T17:03:32.948Z,36.10
2023-05-14T17:05:59.952Z,36.01
2023-05-14T17:08:31.762Z,36.28
2023-05-14T17:10:58.449Z,36.45
2023-05-14T17:13:25.184Z,36.38
2023-05-14T17:15:51.876Z,36.45
2023-05-14T17:18:18.541Z,36.58
2023-05-14T17:20:45.241Z,36.34
2023-05-14T17:23:11.862Z,36.71
2023-05-14T17:25:38.786Z,36.83
2023-05-14T17:28:05.694Z,36.99
2023-05-14T17:30:32.671Z,37.12
2023-05-14T17:33:00.041Z,37.05
2023-05-14T17:35:27.178Z,37.23
2023-05-14T17:37:54.034Z,37.30
2023-05-14T17:40:20.999Z,37.30
2023-05-14T17:42:47.612Z,37.31
2023-05-14T17:45:15.489Z,37.20
2023-05-14T17:47:42.484Z,37.15
2023-05-14T17:50:09.531Z,37.25
2023-05-14T17:52:36.650Z,37.23
2023-05-14T17:55:03.856Z,37.58
2023-05-14T17:57:30.761Z,37.64
2023-05-14T17:59:57.419Z,37.93
2023-05-14T18:02:24.260Z,37.67
2023-05-14T18:04:51.067Z,37.66
2023-05-14T18:07:19.244Z,37.78
2023-05-14T18:09:45.919Z,37.96
2023-05-14T18:12:12.589Z,37.95
2023-05-14T18:14:39.309Z,38.15
2023-05-14T18:17:06.542Z,38.31
2023-05-14T18:19:33.469Z,38.16
2023-05-14T18:22:00.168Z,38.53
2023-05-14T18:24:26.763Z,38.26
2023-05-14T18:26:54.403Z,38.35
2023-05-14T18:29:21.161Z,38.51
2023-05-14T18:31:47.806Z,38.81
2023-05-14T18:34:14.497Z,39.21
2023-05-14T18:36:41.267Z,38.89
2023-05-14T18:39:11.155Z,39.27
2023-05-14T18:41:37.728Z,39.16
2023-05-14T18:44:04.380Z,39.20
2023-05-14T18:46:31.075Z,39.23
2023-05-14T18:48:57.769Z,39.34
2023-05-14T18:51:24.440Z,39.46
2023-05-14T18:53:51.239Z,39.64
2023-05-14T18:56:18.023Z,39.64
2023-05-14T18:58:44.665Z,39.88
2023-05-14T19:01:11.279Z,39.89
2023-05-14T19:03:38.059Z,40.00
2023-05-14T19:06:04.664Z,40.12
2023-05-14T19:08:31.244Z,40.29
2023-05-14T19:10:57.814Z,40.39
2023-05-14T19:13:24.579Z,40.26
2023-05-14T19:15:51.257Z,40.48
2023-05-14T19:18:17.972Z,40.58
2023-05-14T19:20:46.643Z,40.74
2023-05-14T19:23:13.758Z,40.62
2023-05-14T19:25:40.660Z,40.72
2023-05-14T19:28:07.333Z,40.75
2023-05-14T19:30:33.990Z,41.12
2023-05-14T19:33:00.799Z,40.74
2023-05-14T19:35:27.476Z,41.11
2023-05-14T19:37:54.320Z,40.90
2023-05-14T19:40:20.972Z,40.99
2023-05-14T19:42:47.559Z,41.02
2023-05-14T19:45:14.192Z,41.02
2023-05-14T19:47:41.756Z,41.18
2023-05-14T19:50:09.113Z,41.08
2023-05-14T19:52:35.783Z,41.23
2023-05-14T19:55:02.349Z,41.29
2023-05-14T19:57:29.338Z,41.29
2023-05-14T19:59:55.961Z,41.33
2023-05-14T20:02:22.804Z,41.43
2023-05-14T20:04:49.533Z,41.58
2023-05-14T20:07:16.380Z,41.57
2023-05-14T20:09:43.045Z,42.01
2023-05-14T20:12:09.768Z,42.19
2023-05-14T20:14:36.575Z,42.30
2023-05-14T20:17:03.409Z,42.48
2023-05-14T20:19:30.698Z,42.43
2023-05-14T20:21:57.615Z,42.47
2023-05-14T20:24:24.215Z,42.90
2023-05-14T20:26:50.914Z,43.11
2023-05-14T20:29:17.524Z,43.20
2023-05-14T20:31:44.125Z,43.59
2023-05-14T20:34:10.732Z,43.74
2023-05-14T20:36:37.496Z,43.74
2023-05-14T20:39:09.652Z,44.25
2023-05-14T20:41:36.249Z,44.39
2023-05-14T20:44:03.102Z,44.58
2023-05-14T20:46:29.794Z,44.73
2023-05-14T20:48:57.302Z,45.04
2023-05-14T20:51:24.160Z,44.69
2023-05-14T20:53:50.832Z,44.98
2023-05-14T20:56:17.556Z,45.14
2023-05-14T20:58:44.193Z,45.30
2023-05-14T21:01:10.819Z,45.25
2023-05-14T21:03:37.645Z,45.21
2023-05-14T21:06:04.928Z,45.71
2023-05-14T21:08:33.021Z,46.03
2023-05-14T21:10:59.657Z,46.13
2023-05-14T21:13:26.355Z,46.16
2023-05-14T21:15:53.064Z,46.46
2023-05-14T21:18:19.702Z,46.53
2023-05-14T21:20:46.562Z,46.68
2023-05-14T21:23:13.752Z,46.55
2023-05-14T21:25:40.433Z,46.41
2023-05-14T21:28:07.729Z,46.69
2023-05-14T21:30:34.293Z,46.35
2023-05-14T21:33:01.027Z,46.46
2023-05-14T21:35:27.918Z,46.36
2023-05-14T21:37:54.579Z,46.29
2023-05-14T21:40:21.545Z,46.18
2023-05-14T21:42:48.212Z,46.13
2023-05-14T21:45:14.908Z,46.31
2023-05-14T21:47:41.700Z,46.18
2023-05-14T21:50:09.047Z,45.95
2023-05-14T21:52:36.551Z,46.21
2023-05-14T21:55:03.267Z,46.14
2023-05-14T21:57:33.172Z,46.15
2023-05-14T22:00:01.145Z,46.06
2023-05-14T22:02:27.878Z,46.32
2023-05-14T22:04:54.674Z,46.12
2023-05-14T22:07:21.309Z,46.23
2023-05-14T22:09:48.202Z,45.90
2023-05-14T22:12:14.858Z,45.99
2023-05-14T22:14:41.915Z,45.87
2023-05-14T22:17:08.499Z,45.88
2023-05-14T22:19:35.414Z,45.98
2023-05-14T22:22:02.084Z,46.01
2023-05-14T22:24:28.671Z,45.83
2023-05-14T22:26:55.649Z,46.03
2023-05-14T22:29:22.331Z,46.29
2023-05-14T22:31:49.088Z,46.26
2023-05-14T22:34:16.236Z,46.48
2023-05-14T22:36:42.856Z,46.08
2023-05-14T22:39:11.269Z,46.44
2023-05-14T22:41:39.577Z,46.58
2023-05-14T22:44:09.403Z,46.65
2023-05-14T22:46:36.124Z,46.95
2023-05-14T22:49:03.214Z,46.96
2023-05-14T22:51:29.850Z,47.19
2023-05-14T22:53:56.468Z,47.50
2023-05-14T22:56:23.258Z,47.76
2023-05-14T22:58:49.854Z,47.54
2023-05-14T23:01:16.615Z,48.10
2023-05-14T23:03:43.390Z,47.79
2023-05-14T23:06:10.696Z,48.11
2023-05-14T23:08:37.318Z,48.25
2023-05-14T23:11:04.313Z,48.20
2023-05-14T23:13:31.072Z,48.17
2023-05-14T23:15:57.757Z,47.95
2023-05-14T23:18:24.540Z,48.06
2023-05-14T23:20:51.154Z,48.23
2023-05-14T23:23:17.762Z,48.36
2023-05-14T23:25:44.587Z,48.42
2023-05-14T23:28:11.397Z,48.70
2023-05-14T23:30:38.045Z,48.95
2023-05-14T23:33:04.781Z,49.18
2023-05-14T23:35:31.557Z,49.01
2023-05-14T23:37:58.331Z,49.15
2023-05-14T23:40:24.922Z,49.65
2023-05-14T23:42:52.057Z,49.67
2023-05-14T23:45:18.744Z,49.93
2023-05-14T23:47:45.654Z,49.75
2023-05-14T23:50:12.344Z,49.94
2023-05-14T23:52:39.050Z,49.94
2023-05-14T23:55:06.432Z,50.09
2023-05-14T23:57:33.089Z,50.12
2023-05-14T23:59:59.689Z,50.28
